Last 30 Days

Scotts Valley

Daily Data | America/Los_Angeles
as of 10/26/20 9:06 AM PDT
Date Daily Max Temp (°F) Time of Max Temp Daily Min Temp (°F) Time of Min Temp Daily Rain (In) Monthly Rain (In) Seasonal Rainfall (In) Wind Spd (mph) Daily Max Wind (mph) Time of Max Wind Max Wind Dir (°) Dew Pt (°F) Max RH (%) Min RH (%) Hrs <= 32F (hrs) Hrs <= 28F (hrs) Chilling <=45F (hrs) Chill Hrs 32-45F (hrs) Utah Chilling (Units) GDDs (DL) GDDs (Mx/Mn) Seas GDDs (DL) Seas GDDs (Smpl) Hrs 70-85F (hrs) Hrs > 95F (hrs) Powdery Mildew Stress (pts) Degree Hrs (hrs) Bat Volt Min Day (V)
10/25/20 72.0 1610 31.2 0750 0.00 0.00 0.08 2.0 14.2 1728 ENE | 57 22.0 100 3 1.6 0.0 10.6 9.0 3.0 6.7 1.6 3,381 3,169 0.86 0.00 20 20.3 12.6
10/24/20 77.7 1514 32.7 0732 0.00 0.00 0.08 1.2 11.9 1552 WSW | 252 38.5 99 19 0.0 0.0 11.2 11.2 4.5 8.1 5.2 3,375 3,167 5.72 0.00 30 53.4 12.6
10/23/20 79.0 1514 30.4 0732 0.00 0.00 0.08 1.1 11.0 1538 SSW | 202 32.7 92 16 2.3 0.0 11.0 8.7 4.5 8.9 4.7 3,367 3,162 6.03 0.00 40 63.7 12.5
10/22/20 81.5 1442 36.4 0739 0.00 0.00 0.08 1.1 9.7 1715 ENE | 78 31.3 99 7 0.0 0.0 11.1 11.1 4.5 10.2 8.9 3,358 3,157 7.68 0.00 20 94.4 12.5
10/21/20 89.8 1610 36.5 0741 0.00 0.00 0.08 1.0 9.1 1702 NW | 304 40.8 98 15 0.0 0.0 8.1 8.1 3.0 13.1 13.2 3,348 3,148 4.38 0.00 0 141.1 12.5
10/20/20 92.8 1719 36.4 0724 0.00 0.00 0.08 0.9 9.0 1608 SSE | 153 40.7 98 11 0.0 0.0 7.7 7.7 3.0 13.5 14.6 3,334 3,135 3.33 0.00 0 156.9 12.5
10/19/20 91.0 1548 37.4 0722 0.00 0.00 0.08 0.9 7.2 1327 SE | 132 39.3 95 13 0.0 0.0 7.6 7.6 3.0 13.7 14.2 3,321 3,120 3.30 0.00 0 156.4 12.5
10/18/20 92.5 1602 38.6 0715 0.00 0.00 0.08 1.0 9.7 1505 WSW | 258 37.4 88 10 0.0 0.0 6.9 6.9 2.5 14.8 15.5 3,307 3,106 3.12 0.00 0 176.0 12.5
10/17/20 96.8 1510 37.1 0737 0.00 0.00 0.08 1.0 10.2 1605 W | 270 32.6 85 6 0.0 0.0 7.5 7.5 2.0 16.8 17.0 3,292 3,091 2.22 2.06 0 220.1 12.5
10/16/20 96.2 1645 36.7 0724 0.00 0.00 0.08 0.9 8.2 1428 ESE | 117 33.4 91 7 0.0 0.0 8.2 8.2 3.0 15.7 16.4 3,276 3,074 2.12 0.94 0 205.9 12.5
10/15/20 94.5 1603 40.2 0731 0.00 0.00 0.08 1.0 9.4 1603 SE | 138 38.4 97 8 0.0 0.0 5.7 5.7 3.0 14.6 17.4 3,260 3,057 1.96 0.00 10 190.2 12.5
10/14/20 92.7 1635 42.6 0742 0.00 0.00 0.08 1.0 8.2 1743 W | 277 45.3 99 12 0.0 0.0 1.9 1.9 1.5 15.0 17.7 3,245 3,040 4.07 0.00 20 167.2 12.6
10/13/20 90.5 1540 39.4 0657 0.00 0.00 0.08 1.4 15.3 1440 N | 351 45.4 100 18 0.0 0.0 7.3 7.3 0.5 15.8 14.9 3,230 3,022 2.90 0.00 30 168.7 12.5
10/12/20 87.1 1624 36.4 0732 0.00 0.00 0.08 1.1 10.6 1651 SW | 232 41.9 100 13 0.0 0.0 7.5 7.5 2.0 12.8 11.7 3,215 3,007 5.08 0.00 40 125.7 12.6
10/11/20 81.4 1621 38.7 0740 0.00 0.00 0.08 1.2 9.0 1601 WSW | 252 43.3 100 17 0.0 0.0 4.1 4.1 2.5 10.7 10.0 3,202 2,996 6.14 0.00 50 72.8 12.6
10/10/20 69.9 1616 46.2 0134 0.00 0.00 0.08 1.6 15.0 1257 WNW | 283 51.9 99 60 0.0 0.0 0.0 0.0 1.5 7.7 8.0 3,191 2,986 0.00 0.00 30 16.7 12.5
10/9/20 79.2 1610 34.9 0558 0.00 0.00 0.08 1.4 10.2 1531 SW | 226 42.9 100 16 0.0 0.0 7.6 7.6 1.0 10.8 7.1 3,183 2,977 6.46 0.00 40 73.5 12.6
10/8/20 80.1 1422 39.8 0250 0.00 0.00 0.08 1.2 11.8 1556 W | 275 41.2 96 18 0.0 0.0 9.2 9.2 3.5 10.1 10.0 3,173 2,970 7.52 0.00 20 83.6 12.5
10/7/20 88.8 1437 31.8 0726 0.00 0.00 0.08 1.2 11.8 1536 SW | 217 33.2 98 4 0.5 0.0 9.2 8.7 -5.0 13.1 10.3 3,163 2,960 3.35 0.00 0 151.1 12.5
10/6/20 93.8 1609 35.2 0723 0.00 0.00 0.08 1.0 9.4 1709 W | 261 35.4 97 7 0.0 0.0 8.6 8.6 3.0 15.2 14.5 3,149 2,950 2.31 0.00 0 187.4 12.5
10/5/20 93.3 1640 35.8 0724 0.00 0.00 0.08 0.8 7.8 1308 SE | 130 35.0 92 7 0.0 0.0 8.0 8.0 3.0 15.0 14.6 3,134 2,936 2.45 0.00 0 185.4 12.5
10/4/20 95.0 1632 36.2 0727 0.00 0.00 0.08 1.0 9.2 1654 SW | 223 33.2 92 6 0.0 0.0 6.6 6.6 3.0 16.0 15.6 3,119 2,921 2.60 0.00 0 203.1 12.5
10/3/20 97.1 1509 40.8 0721 0.00 0.00 0.08 1.7 18.1 1557 W | 264 33.4 93 6 0.0 0.0 4.0 4.0 -5.5 20.6 19.0 3,103 2,905 3.41 3.59 0 278.7 12.5
10/2/20 95.4 1636 46.7 0724 0.00 0.00 0.08 0.8 10.7 1744 WSW | 250 42.7 90 11 0.0 0.0 0.0 0.0 0.5 16.8 21.0 3,083 2,887 2.66 0.22 0 192.4 12.5
10/1/20 94.3 1504 47.0 0716 0.00 0.00 0.08 0.3 4.3 1657 SW | 232 45.7 83 11 0.0 0.0 0.0 0.0 0.5 16.6 20.6 3,066 2,865 2.30 0.00 10 189.4 12.5
9/30/20 100.6 1626 42.4 0730 0.00 0.00 0.08 0.9 10.3 1748 WNW | 299 38.4 90 7 0.0 0.0 3.4 3.4 0.5 19.7 21.5 3,049 2,845 2.00 4.15 20 261.0 12.5
9/29/20 96.2 1556 42.3 0713 0.00 0.00 0.08 0.7 8.3 1424 SE | 144 37.8 86 7 0.0 0.0 3.9 3.9 1.0 16.7 19.3 3,030 2,823 2.02 1.11 30 206.3 12.5
9/28/20 98.0 1650 43.8 0715 0.00 0.00 0.08 0.8 6.7 1459 SE | 130 36.8 79 6 0.0 0.0 1.4 1.4 1.0 17.8 20.9 3,013 2,804 2.26 1.70 40 225.5 12.6
9/27/20 96.1 1452 42.3 0658 0.00 0.00 0.08 1.6 11.8 1632 ENE | 77 39.8 99 6 0.0 0.0 2.4 2.4 0.0 18.7 19.2 2,995 2,783 2.22 0.29 50 230.4 12.6
9/26/20 85.4 1500 51.3 0056 0.00 0.00 0.08 1.9 15.0 1551 WSW | 255 51.8 95 29 0.0 0.0 0.0 0.0 0.5 18.0 18.4 2,976 2,764 10.36 0.00 60 150.9 12.6
Max 100.6 - 51.3 - 0.00 0.00 - 2.0 18.1 - - 51.9 100 60 2.3 0.0 11.2 11.2 4.5 20.6 21.5 - - 10.36 4.15 60 278.7 12.6
Avg - - - - - 0.00 - 1.1 - - - 38.7 - - 0.1 0.0 6.0 5.9 1.7 14.1 14.1 - - 3.69 0.47 - - -
Min 69.9 - 30.4 - 0.00 0.00 - 0.3 4.3 - - 22.0 79 3 0.0 0.0 0.0 0.0 -5.5 6.7 1.6 - - 0.00 0.00 0 16.7 12.5
Total - - - - - - - - - - - - - - 4.4 0.0 180.7 176.3 51.0 423.0 422.9 - - 110.81 14.07 - - -